sensor_id;sensor_type;location;lat;lon;timestamp;P1;durP1;ratioP1;P2;durP2;ratioP2
38264;SDS011;24062;47.480;8.768;2023-02-15T00:01:41;20.37;;;8.27;;
38264;SDS011;24062;47.480;8.768;2023-02-15T00:04:09;15.53;;;9.13;;
38264;SDS011;24062;47.480;8.768;2023-02-15T00:06:38;46.90;;;9.17;;
38264;SDS011;24062;47.480;8.768;2023-02-15T00:09:06;13.57;;;7.57;;
38264;SDS011;24062;47.480;8.768;2023-02-15T00:11:32;9.83;;;7.20;;
38264;SDS011;24062;47.480;8.768;2023-02-15T00:14:06;36.73;;;7.13;;
38264;SDS011;24062;47.480;8.768;2023-02-15T00:16:35;15.20;;;7.03;;
38264;SDS011;24062;47.480;8.768;2023-02-15T00:19:02;23.13;;;7.33;;
38264;SDS011;24062;47.480;8.768;2023-02-15T00:21:29;50.57;;;8.27;;
38264;SDS011;24062;47.480;8.768;2023-02-15T00:23:57;45.50;;;7.23;;
38264;SDS011;24062;47.480;8.768;2023-02-15T00:26:25;20.07;;;6.73;;
38264;SDS011;24062;47.480;8.768;2023-02-15T00:28:52;21.03;;;6.63;;
38264;SDS011;24062;47.480;8.768;2023-02-15T00:31:20;9.93;;;6.30;;
38264;SDS011;24062;47.480;8.768;2023-02-15T00:33:48;12.00;;;6.27;;
38264;SDS011;24062;47.480;8.768;2023-02-15T00:36:15;23.73;;;7.00;;
38264;SDS011;24062;47.480;8.768;2023-02-15T00:38:42;18.83;;;6.77;;
38264;SDS011;24062;47.480;8.768;2023-02-15T00:41:09;26.33;;;7.03;;
38264;SDS011;24062;47.480;8.768;2023-02-15T00:43:36;13.23;;;7.13;;
38264;SDS011;24062;47.480;8.768;2023-02-15T00:46:03;7.70;;;6.90;;
38264;SDS011;24062;47.480;8.768;2023-02-15T00:48:31;27.17;;;6.97;;
38264;SDS011;24062;47.480;8.768;2023-02-15T00:50:59;8.30;;;7.50;;
38264;SDS011;24062;47.480;8.768;2023-02-15T00:53:27;15.83;;;7.27;;
38264;SDS011;24062;47.480;8.768;2023-02-15T00:55:55;33.33;;;6.83;;
38264;SDS011;24062;47.480;8.768;2023-02-15T00:58:22;14.00;;;7.30;;
38264;SDS011;24062;47.480;8.768;2023-02-15T01:00:49;7.63;;;5.80;;
38264;SDS011;24062;47.480;8.768;2023-02-15T01:03:17;10.53;;;8.00;;
38264;SDS011;24062;47.480;8.768;2023-02-15T01:05:46;15.13;;;7.67;;
38264;SDS011;24062;47.480;8.768;2023-02-15T01:08:17;17.50;;;7.97;;
38264;SDS011;24062;47.480;8.768;2023-02-15T01:10:44;9.60;;;7.97;;
38264;SDS011;24062;47.480;8.768;2023-02-15T01:13:12;21.37;;;7.30;;
38264;SDS011;24062;47.480;8.768;2023-02-15T01:15:40;11.63;;;7.73;;
38264;SDS011;24062;47.480;8.768;2023-02-15T01:18:07;39.00;;;7.70;;
38264;SDS011;24062;47.480;8.768;2023-02-15T01:20:35;48.03;;;8.20;;
38264;SDS011;24062;47.480;8.768;2023-02-15T01:23:06;45.93;;;7.30;;
38264;SDS011;24062;47.480;8.768;2023-02-15T01:25:35;42.17;;;8.13;;
38264;SDS011;24062;47.480;8.768;2023-02-15T01:28:02;33.20;;;7.57;;
38264;SDS011;24062;47.480;8.768;2023-02-15T01:30:30;57.13;;;7.47;;
38264;SDS011;24062;47.480;8.768;2023-02-15T01:32:57;9.33;;;7.37;;
38264;SDS011;24062;47.480;8.768;2023-02-15T01:35:25;8.40;;;7.57;;
38264;SDS011;24062;47.480;8.768;2023-02-15T01:37:53;28.53;;;8.40;;
38264;SDS011;24062;47.480;8.768;2023-02-15T01:40:20;20.30;;;8.50;;
38264;SDS011;24062;47.480;8.768;2023-02-15T01:42:51;8.60;;;7.07;;
38264;SDS011;24062;47.480;8.768;2023-02-15T01:45:20;10.40;;;8.63;;
38264;SDS011;24062;47.480;8.768;2023-02-15T01:47:50;14.63;;;9.70;;
38264;SDS011;24062;47.480;8.768;2023-02-15T01:50:21;11.90;;;9.37;;
38264;SDS011;24062;47.480;8.768;2023-02-15T01:52:55;13.00;;;9.17;;
38264;SDS011;24062;47.480;8.768;2023-02-15T01:55:25;14.20;;;9.57;;
38264;SDS011;24062;47.480;8.768;2023-02-15T01:57:57;16.60;;;9.27;;
38264;SDS011;24062;47.480;8.768;2023-02-15T02:00:25;16.40;;;9.37;;
38264;SDS011;24062;47.480;8.768;2023-02-15T02:02:53;9.83;;;8.80;;
38264;SDS011;24062;47.480;8.768;2023-02-15T02:05:23;11.93;;;8.67;;
38264;SDS011;24062;47.480;8.768;2023-02-15T02:07:51;10.83;;;9.17;;
38264;SDS011;24062;47.480;8.768;2023-02-15T02:10:21;11.10;;;8.77;;
38264;SDS011;24062;47.480;8.768;2023-02-15T02:12:50;14.20;;;9.57;;
38264;SDS011;24062;47.480;8.768;2023-02-15T02:15:23;18.33;;;10.10;;
38264;SDS011;24062;47.480;8.768;2023-02-15T02:17:58;32.47;;;9.97;;
38264;SDS011;24062;47.480;8.768;2023-02-15T02:20:45;17.20;;;10.30;;
38264;SDS011;24062;47.480;8.768;2023-02-15T02:23:57;12.97;;;9.80;;
38264;SDS011;24062;47.480;8.768;2023-02-15T02:26:49;17.17;;;9.60;;
38264;SDS011;24062;47.480;8.768;2023-02-15T02:32:49;17.53;;;8.90;;
38264;SDS011;24062;47.480;8.768;2023-02-15T02:35:33;18.20;;;9.43;;
38264;SDS011;24062;47.480;8.768;2023-02-15T02:38:10;12.47;;;8.90;;
38264;SDS011;24062;47.480;8.768;2023-02-15T02:40:46;16.33;;;9.37;;
38264;SDS011;24062;47.480;8.768;2023-02-15T02:43:21;28.77;;;9.00;;
38264;SDS011;24062;47.480;8.768;2023-02-15T02:45:57;15.67;;;9.57;;
38264;SDS011;24062;47.480;8.768;2023-02-15T02:48:29;19.60;;;10.10;;
38264;SDS011;24062;47.480;8.768;2023-02-15T02:50:58;19.80;;;9.67;;
38264;SDS011;24062;47.480;8.768;2023-02-15T02:53:26;18.27;;;9.73;;
38264;SDS011;24062;47.480;8.768;2023-02-15T02:55:56;16.10;;;9.03;;
38264;SDS011;24062;47.480;8.768;2023-02-15T02:58:29;16.53;;;9.00;;
38264;SDS011;24062;47.480;8.768;2023-02-15T03:01:02;24.80;;;9.67;;
38264;SDS011;24062;47.480;8.768;2023-02-15T03:03:35;15.63;;;9.20;;
38264;SDS011;24062;47.480;8.768;2023-02-15T03:06:06;10.70;;;8.90;;
38264;SDS011;24062;47.480;8.768;2023-02-15T03:08:40;11.37;;;9.07;;
38264;SDS011;24062;47.480;8.768;2023-02-15T03:11:11;32.37;;;9.10;;
38264;SDS011;24062;47.480;8.768;2023-02-15T03:13:38;12.50;;;9.80;;
38264;SDS011;24062;47.480;8.768;2023-02-15T03:16:06;10.57;;;9.47;;
38264;SDS011;24062;47.480;8.768;2023-02-15T03:18:56;11.83;;;9.03;;
38264;SDS011;24062;47.480;8.768;2023-02-15T03:21:31;13.90;;;8.87;;
38264;SDS011;24062;47.480;8.768;2023-02-15T03:24:04;20.93;;;9.00;;
38264;SDS011;24062;47.480;8.768;2023-02-15T03:26:35;11.40;;;9.70;;
38264;SDS011;24062;47.480;8.768;2023-02-15T03:29:05;11.57;;;9.53;;
38264;SDS011;24062;47.480;8.768;2023-02-15T03:31:35;11.90;;;9.10;;
38264;SDS011;24062;47.480;8.768;2023-02-15T03:34:08;16.97;;;10.30;;
38264;SDS011;24062;47.480;8.768;2023-02-15T03:36:40;9.37;;;7.87;;
38264;SDS011;24062;47.480;8.768;2023-02-15T03:39:12;8.93;;;7.87;;
38264;SDS011;24062;47.480;8.768;2023-02-15T03:41:48;12.20;;;9.03;;
38264;SDS011;24062;47.480;8.768;2023-02-15T03:44:23;10.40;;;7.80;;
38264;SDS011;24062;47.480;8.768;2023-02-15T03:46:55;9.50;;;8.27;;
38264;SDS011;24062;47.480;8.768;2023-02-15T03:49:31;12.37;;;8.53;;
38264;SDS011;24062;47.480;8.768;2023-02-15T03:52:05;11.10;;;8.50;;
38264;SDS011;24062;47.480;8.768;2023-02-15T03:54:34;11.10;;;8.90;;
38264;SDS011;24062;47.480;8.768;2023-02-15T03:57:16;12.03;;;8.67;;
38264;SDS011;24062;47.480;8.768;2023-02-15T04:00:05;10.50;;;8.20;;
38264;SDS011;24062;47.480;8.768;2023-02-15T04:03:02;15.97;;;8.27;;
38264;SDS011;24062;47.480;8.768;2023-02-15T04:05:37;15.37;;;8.80;;
38264;SDS011;24062;47.480;8.768;2023-02-15T04:08:05;11.37;;;9.77;;
38264;SDS011;24062;47.480;8.768;2023-02-15T04:10:32;10.90;;;8.67;;
38264;SDS011;24062;47.480;8.768;2023-02-15T04:13:16;18.37;;;8.77;;
38264;SDS011;24062;47.480;8.768;2023-02-15T04:15:44;10.53;;;7.80;;
38264;SDS011;24062;47.480;8.768;2023-02-15T04:18:28;9.00;;;7.40;;
38264;SDS011;24062;47.480;8.768;2023-02-15T04:21:14;8.93;;;7.10;;
38264;SDS011;24062;47.480;8.768;2023-02-15T04:23:58;9.20;;;7.03;;
38264;SDS011;24062;47.480;8.768;2023-02-15T04:26:43;8.20;;;7.40;;
38264;SDS011;24062;47.480;8.768;2023-02-15T04:29:10;13.10;;;7.70;;
38264;SDS011;24062;47.480;8.768;2023-02-15T04:31:37;13.13;;;8.57;;
38264;SDS011;24062;47.480;8.768;2023-02-15T04:34:04;17.97;;;7.90;;
38264;SDS011;24062;47.480;8.768;2023-02-15T04:36:32;12.07;;;7.60;;
38264;SDS011;24062;47.480;8.768;2023-02-15T04:38:59;7.37;;;6.67;;
38264;SDS011;24062;47.480;8.768;2023-02-15T04:41:26;13.83;;;7.77;;
38264;SDS011;24062;47.480;8.768;2023-02-15T04:43:53;14.93;;;8.23;;
38264;SDS011;24062;47.480;8.768;2023-02-15T04:46:19;18.00;;;8.37;;
38264;SDS011;24062;47.480;8.768;2023-02-15T04:48:46;16.40;;;7.27;;
38264;SDS011;24062;47.480;8.768;2023-02-15T04:51:13;26.97;;;8.20;;
38264;SDS011;24062;47.480;8.768;2023-02-15T04:53:42;20.07;;;7.73;;
38264;SDS011;24062;47.480;8.768;2023-02-15T04:56:09;27.07;;;8.53;;
38264;SDS011;24062;47.480;8.768;2023-02-15T04:58:35;32.57;;;7.83;;
38264;SDS011;24062;47.480;8.768;2023-02-15T05:01:01;22.27;;;8.10;;
38264;SDS011;24062;47.480;8.768;2023-02-15T05:03:28;18.13;;;8.20;;
38264;SDS011;24062;47.480;8.768;2023-02-15T05:05:55;36.60;;;8.60;;
38264;SDS011;24062;47.480;8.768;2023-02-15T05:08:22;10.97;;;7.83;;
38264;SDS011;24062;47.480;8.768;2023-02-15T05:10:50;33.97;;;8.40;;
38264;SDS011;24062;47.480;8.768;2023-02-15T05:13:17;17.90;;;6.83;;
38264;SDS011;24062;47.480;8.768;2023-02-15T05:15:46;32.67;;;8.00;;
38264;SDS011;24062;47.480;8.768;2023-02-15T05:18:15;19.00;;;8.20;;
38264;SDS011;24062;47.480;8.768;2023-02-15T05:20:42;28.13;;;8.10;;
38264;SDS011;24062;47.480;8.768;2023-02-15T05:23:09;11.87;;;7.40;;
38264;SDS011;24062;47.480;8.768;2023-02-15T05:25:36;15.40;;;8.43;;
38264;SDS011;24062;47.480;8.768;2023-02-15T05:28:22;8.80;;;7.70;;
38264;SDS011;24062;47.480;8.768;2023-02-15T05:30:51;10.90;;;7.97;;
38264;SDS011;24062;47.480;8.768;2023-02-15T05:33:28;13.07;;;6.80;;
38264;SDS011;24062;47.480;8.768;2023-02-15T05:35:55;9.47;;;6.87;;
38264;SDS011;24062;47.480;8.768;2023-02-15T05:38:22;32.87;;;7.13;;
38264;SDS011;24062;47.480;8.768;2023-02-15T05:40:49;28.50;;;7.63;;
38264;SDS011;24062;47.480;8.768;2023-02-15T05:43:17;34.37;;;7.90;;
38264;SDS011;24062;47.480;8.768;2023-02-15T05:45:46;22.97;;;7.77;;
38264;SDS011;24062;47.480;8.768;2023-02-15T05:48:13;13.20;;;7.03;;
38264;SDS011;24062;47.480;8.768;2023-02-15T05:50:40;21.93;;;7.47;;
38264;SDS011;24062;47.480;8.768;2023-02-15T05:53:07;9.00;;;6.37;;
38264;SDS011;24062;47.480;8.768;2023-02-15T05:55:36;7.60;;;6.87;;
38264;SDS011;24062;47.480;8.768;2023-02-15T05:58:04;13.63;;;7.00;;
38264;SDS011;24062;47.480;8.768;2023-02-15T06:00:31;9.07;;;7.33;;
38264;SDS011;24062;47.480;8.768;2023-02-15T06:02:59;8.30;;;7.50;;
38264;SDS011;24062;47.480;8.768;2023-02-15T06:05:26;7.43;;;6.70;;
38264;SDS011;24062;47.480;8.768;2023-02-15T06:07:53;8.10;;;6.13;;
38264;SDS011;24062;47.480;8.768;2023-02-15T06:10:20;7.80;;;6.43;;
38264;SDS011;24062;47.480;8.768;2023-02-15T06:12:47;6.23;;;5.63;;
38264;SDS011;24062;47.480;8.768;2023-02-15T06:15:14;7.10;;;6.30;;
38264;SDS011;24062;47.480;8.768;2023-02-15T06:17:41;6.57;;;5.90;;
38264;SDS011;24062;47.480;8.768;2023-02-15T06:20:10;9.63;;;6.20;;
38264;SDS011;24062;47.480;8.768;2023-02-15T06:22:38;7.03;;;6.43;;
38264;SDS011;24062;47.480;8.768;2023-02-15T06:25:05;6.93;;;6.23;;
38264;SDS011;24062;47.480;8.768;2023-02-15T06:27:34;7.80;;;6.43;;
38264;SDS011;24062;47.480;8.768;2023-02-15T06:30:02;8.10;;;7.30;;
38264;SDS011;24062;47.480;8.768;2023-02-15T06:32:30;7.80;;;7.00;;
38264;SDS011;24062;47.480;8.768;2023-02-15T06:34:57;9.17;;;7.33;;
38264;SDS011;24062;47.480;8.768;2023-02-15T06:37:25;9.40;;;7.10;;
38264;SDS011;24062;47.480;8.768;2023-02-15T06:39:52;8.20;;;7.20;;
38264;SDS011;24062;47.480;8.768;2023-02-15T06:42:20;9.10;;;7.30;;
38264;SDS011;24062;47.480;8.768;2023-02-15T06:44:47;9.13;;;7.27;;
38264;SDS011;24062;47.480;8.768;2023-02-15T06:47:14;10.30;;;8.17;;
38264;SDS011;24062;47.480;8.768;2023-02-15T06:49:41;9.03;;;6.67;;
38264;SDS011;24062;47.480;8.768;2023-02-15T06:52:08;7.97;;;7.17;;
38264;SDS011;24062;47.480;8.768;2023-02-15T06:54:36;9.27;;;7.87;;
38264;SDS011;24062;47.480;8.768;2023-02-15T06:57:03;8.47;;;7.63;;
38264;SDS011;24062;47.480;8.768;2023-02-15T06:59:30;9.40;;;8.40;;
38264;SDS011;24062;47.480;8.768;2023-02-15T07:01:57;11.00;;;7.70;;
38264;SDS011;24062;47.480;8.768;2023-02-15T07:04:24;7.80;;;7.03;;
38264;SDS011;24062;47.480;8.768;2023-02-15T07:06:53;7.20;;;6.43;;
38264;SDS011;24062;47.480;8.768;2023-02-15T07:09:20;9.37;;;7.77;;
38264;SDS011;24062;47.480;8.768;2023-02-15T07:11:48;7.73;;;6.83;;
38264;SDS011;24062;47.480;8.768;2023-02-15T07:14:33;7.60;;;6.90;;
38264;SDS011;24062;47.480;8.768;2023-02-15T07:17:00;9.47;;;7.13;;
38264;SDS011;24062;47.480;8.768;2023-02-15T07:19:27;14.60;;;8.20;;
38264;SDS011;24062;47.480;8.768;2023-02-15T07:21:54;49.27;;;9.13;;
38264;SDS011;24062;47.480;8.768;2023-02-15T07:24:21;20.33;;;8.23;;
38264;SDS011;24062;47.480;8.768;2023-02-15T07:26:49;13.23;;;7.87;;
38264;SDS011;24062;47.480;8.768;2023-02-15T07:29:16;15.20;;;8.07;;
38264;SDS011;24062;47.480;8.768;2023-02-15T07:31:43;33.10;;;6.47;;
38264;SDS011;24062;47.480;8.768;2023-02-15T07:34:10;22.07;;;6.83;;
38264;SDS011;24062;47.480;8.768;2023-02-15T07:36:37;9.27;;;6.10;;
38264;SDS011;24062;47.480;8.768;2023-02-15T07:39:04;25.47;;;6.43;;
38264;SDS011;24062;47.480;8.768;2023-02-15T07:41:31;6.73;;;5.83;;
38264;SDS011;24062;47.480;8.768;2023-02-15T07:44:00;8.00;;;6.20;;
38264;SDS011;24062;47.480;8.768;2023-02-15T07:46:27;7.50;;;6.10;;
38264;SDS011;24062;47.480;8.768;2023-02-15T07:48:55;6.37;;;5.87;;
38264;SDS011;24062;47.480;8.768;2023-02-15T07:51:22;9.70;;;6.00;;
38264;SDS011;24062;47.480;8.768;2023-02-15T07:53:49;7.33;;;6.43;;
38264;SDS011;24062;47.480;8.768;2023-02-15T07:56:16;8.83;;;8.00;;
38264;SDS011;24062;47.480;8.768;2023-02-15T07:58:43;14.33;;;7.40;;
38264;SDS011;24062;47.480;8.768;2023-02-15T08:01:23;10.17;;;8.73;;
38264;SDS011;24062;47.480;8.768;2023-02-15T08:03:51;11.33;;;8.80;;
38264;SDS011;24062;47.480;8.768;2023-02-15T08:06:18;9.53;;;7.23;;
38264;SDS011;24062;47.480;8.768;2023-02-15T08:08:46;9.50;;;7.27;;
38264;SDS011;24062;47.480;8.768;2023-02-15T08:11:17;7.37;;;6.60;;
38264;SDS011;24062;47.480;8.768;2023-02-15T08:13:52;8.60;;;7.67;;
38264;SDS011;24062;47.480;8.768;2023-02-15T08:16:22;10.13;;;7.80;;
38264;SDS011;24062;47.480;8.768;2023-02-15T08:18:50;7.30;;;6.70;;
38264;SDS011;24062;47.480;8.768;2023-02-15T08:21:18;11.50;;;6.57;;
38264;SDS011;24062;47.480;8.768;2023-02-15T08:23:45;7.20;;;6.50;;
38264;SDS011;24062;47.480;8.768;2023-02-15T08:26:12;7.03;;;6.33;;
38264;SDS011;24062;47.480;8.768;2023-02-15T08:28:40;7.33;;;6.40;;
38264;SDS011;24062;47.480;8.768;2023-02-15T08:31:08;7.97;;;6.13;;
38264;SDS011;24062;47.480;8.768;2023-02-15T08:33:39;6.70;;;6.10;;
38264;SDS011;24062;47.480;8.768;2023-02-15T08:36:08;7.80;;;6.47;;
38264;SDS011;24062;47.480;8.768;2023-02-15T08:38:36;6.33;;;5.83;;
38264;SDS011;24062;47.480;8.768;2023-02-15T08:41:10;9.90;;;5.97;;
38264;SDS011;24062;47.480;8.768;2023-02-15T08:43:39;6.67;;;6.07;;
38264;SDS011;24062;47.480;8.768;2023-02-15T08:46:06;73.47;;;18.33;;
38264;SDS011;24062;47.480;8.768;2023-02-15T08:48:33;17.40;;;10.10;;
38264;SDS011;24062;47.480;8.768;2023-02-15T08:51:05;7.70;;;6.70;;
38264;SDS011;24062;47.480;8.768;2023-02-15T08:53:33;10.30;;;6.40;;
38264;SDS011;24062;47.480;8.768;2023-02-15T08:56:00;6.37;;;5.77;;
38264;SDS011;24062;47.480;8.768;2023-02-15T08:58:28;7.87;;;7.00;;
38264;SDS011;24062;47.480;8.768;2023-02-15T09:00:56;9.07;;;7.10;;
38264;SDS011;24062;47.480;8.768;2023-02-15T09:03:23;14.50;;;10.63;;
38264;SDS011;24062;47.480;8.768;2023-02-15T09:05:53;8.80;;;7.47;;
38264;SDS011;24062;47.480;8.768;2023-02-15T09:08:25;7.90;;;7.10;;
38264;SDS011;24062;47.480;8.768;2023-02-15T09:10:53;9.23;;;7.60;;
38264;SDS011;24062;47.480;8.768;2023-02-15T09:13:20;9.70;;;8.20;;
38264;SDS011;24062;47.480;8.768;2023-02-15T09:15:47;8.80;;;7.90;;
38264;SDS011;24062;47.480;8.768;2023-02-15T09:18:14;8.40;;;7.27;;
38264;SDS011;24062;47.480;8.768;2023-02-15T09:20:42;8.90;;;8.00;;
38264;SDS011;24062;47.480;8.768;2023-02-15T09:23:10;9.20;;;7.13;;
38264;SDS011;24062;47.480;8.768;2023-02-15T09:25:38;12.73;;;8.27;;
38264;SDS011;24062;47.480;8.768;2023-02-15T09:28:05;8.13;;;7.33;;
38264;SDS011;24062;47.480;8.768;2023-02-15T09:30:33;10.27;;;7.67;;
38264;SDS011;24062;47.480;8.768;2023-02-15T09:33:00;9.37;;;7.77;;
38264;SDS011;24062;47.480;8.768;2023-02-15T09:35:27;7.73;;;7.03;;
38264;SDS011;24062;47.480;8.768;2023-02-15T09:37:54;9.37;;;8.20;;
38264;SDS011;24062;47.480;8.768;2023-02-15T09:40:21;10.33;;;8.73;;
38264;SDS011;24062;47.480;8.768;2023-02-15T09:42:56;9.97;;;7.30;;
38264;SDS011;24062;47.480;8.768;2023-02-15T09:48:41;9.47;;;6.90;;
38264;SDS011;24062;47.480;8.768;2023-02-15T09:54:17;9.33;;;7.93;;
38264;SDS011;24062;47.480;8.768;2023-02-15T09:56:56;8.03;;;7.20;;
38264;SDS011;24062;47.480;8.768;2023-02-15T09:59:29;9.13;;;6.80;;
38264;SDS011;24062;47.480;8.768;2023-02-15T10:02:06;10.00;;;8.97;;
38264;SDS011;24062;47.480;8.768;2023-02-15T10:04:49;12.13;;;10.13;;
38264;SDS011;24062;47.480;8.768;2023-02-15T10:07:33;9.70;;;8.20;;
38264;SDS011;24062;47.480;8.768;2023-02-15T10:10:13;11.80;;;7.67;;
38264;SDS011;24062;47.480;8.768;2023-02-15T10:12:57;15.83;;;9.97;;
38264;SDS011;24062;47.480;8.768;2023-02-15T10:15:34;13.60;;;8.10;;
38264;SDS011;24062;47.480;8.768;2023-02-15T10:18:15;10.40;;;8.40;;
38264;SDS011;24062;47.480;8.768;2023-02-15T10:20:56;15.20;;;8.73;;
38264;SDS011;24062;47.480;8.768;2023-02-15T10:23:41;9.13;;;7.73;;
38264;SDS011;24062;47.480;8.768;2023-02-15T10:26:31;12.80;;;7.87;;
38264;SDS011;24062;47.480;8.768;2023-02-15T10:29:05;17.80;;;8.80;;
38264;SDS011;24062;47.480;8.768;2023-02-15T10:31:43;10.50;;;7.80;;
38264;SDS011;24062;47.480;8.768;2023-02-15T10:34:16;12.80;;;9.07;;
38264;SDS011;24062;47.480;8.768;2023-02-15T10:39:43;12.70;;;7.90;;
38264;SDS011;24062;47.480;8.768;2023-02-15T10:42:20;12.87;;;9.30;;
38264;SDS011;24062;47.480;8.768;2023-02-15T10:44:58;11.83;;;8.83;;
38264;SDS011;24062;47.480;8.768;2023-02-15T10:47:51;10.17;;;8.37;;
38264;SDS011;24062;47.480;8.768;2023-02-15T10:50:33;10.40;;;8.60;;
38264;SDS011;24062;47.480;8.768;2023-02-15T10:53:14;10.60;;;8.67;;
38264;SDS011;24062;47.480;8.768;2023-02-15T10:55:52;10.63;;;9.03;;
38264;SDS011;24062;47.480;8.768;2023-02-15T10:58:28;12.90;;;9.70;;
38264;SDS011;24062;47.480;8.768;2023-02-15T11:01:02;10.07;;;8.50;;
38264;SDS011;24062;47.480;8.768;2023-02-15T11:03:43;10.40;;;9.30;;
38264;SDS011;24062;47.480;8.768;2023-02-15T11:06:28;9.23;;;8.33;;
38264;SDS011;24062;47.480;8.768;2023-02-15T11:08:57;11.03;;;9.20;;
38264;SDS011;24062;47.480;8.768;2023-02-15T11:11:29;11.07;;;8.73;;
38264;SDS011;24062;47.480;8.768;2023-02-15T11:13:59;19.23;;;10.23;;
38264;SDS011;24062;47.480;8.768;2023-02-15T11:16:30;10.20;;;9.13;;
38264;SDS011;24062;47.480;8.768;2023-02-15T11:19:03;10.87;;;8.97;;
38264;SDS011;24062;47.480;8.768;2023-02-15T11:21:36;10.60;;;9.37;;
38264;SDS011;24062;47.480;8.768;2023-02-15T11:24:08;11.10;;;9.90;;
38264;SDS011;24062;47.480;8.768;2023-02-15T11:26:39;12.23;;;10.60;;
38264;SDS011;24062;47.480;8.768;2023-02-15T11:29:10;12.33;;;9.90;;
38264;SDS011;24062;47.480;8.768;2023-02-15T11:31:41;13.23;;;11.03;;
38264;SDS011;24062;47.480;8.768;2023-02-15T11:34:13;14.13;;;10.40;;
38264;SDS011;24062;47.480;8.768;2023-02-15T11:36:46;10.63;;;8.80;;
38264;SDS011;24062;47.480;8.768;2023-02-15T11:39:17;12.10;;;9.97;;
38264;SDS011;24062;47.480;8.768;2023-02-15T11:41:47;11.27;;;10.07;;
38264;SDS011;24062;47.480;8.768;2023-02-15T11:44:19;11.60;;;10.20;;
38264;SDS011;24062;47.480;8.768;2023-02-15T11:46:49;11.20;;;9.90;;
38264;SDS011;24062;47.480;8.768;2023-02-15T11:49:22;12.17;;;9.60;;
38264;SDS011;24062;47.480;8.768;2023-02-15T11:51:51;12.93;;;9.50;;
38264;SDS011;24062;47.480;8.768;2023-02-15T11:54:19;12.40;;;10.20;;
38264;SDS011;24062;47.480;8.768;2023-02-15T11:56:50;14.50;;;11.20;;
38264;SDS011;24062;47.480;8.768;2023-02-15T11:59:18;15.17;;;11.53;;
38264;SDS011;24062;47.480;8.768;2023-02-15T12:01:54;13.47;;;10.70;;
38264;SDS011;24062;47.480;8.768;2023-02-15T12:04:24;11.47;;;10.27;;
38264;SDS011;24062;47.480;8.768;2023-02-15T12:06:53;16.43;;;10.80;;
38264;SDS011;24062;47.480;8.768;2023-02-15T12:09:27;12.07;;;9.87;;
38264;SDS011;24062;47.480;8.768;2023-02-15T12:14:47;28.53;;;11.53;;
38264;SDS011;24062;47.480;8.768;2023-02-15T12:17:15;15.23;;;10.90;;
38264;SDS011;24062;47.480;8.768;2023-02-15T12:19:44;13.87;;;10.30;;
38264;SDS011;24062;47.480;8.768;2023-02-15T12:22:18;14.50;;;11.80;;
38264;SDS011;24062;47.480;8.768;2023-02-15T12:24:49;14.30;;;11.80;;
38264;SDS011;24062;47.480;8.768;2023-02-15T12:27:19;18.77;;;10.90;;
38264;SDS011;24062;47.480;8.768;2023-02-15T12:29:48;13.10;;;11.40;;
38264;SDS011;24062;47.480;8.768;2023-02-15T12:32:19;15.90;;;12.27;;
38264;SDS011;24062;47.480;8.768;2023-02-15T12:34:50;13.43;;;11.50;;
38264;SDS011;24062;47.480;8.768;2023-02-15T12:37:19;15.10;;;10.90;;
38264;SDS011;24062;47.480;8.768;2023-02-15T12:39:53;15.53;;;11.20;;
38264;SDS011;24062;47.480;8.768;2023-02-15T12:42:21;22.53;;;11.47;;
38264;SDS011;24062;47.480;8.768;2023-02-15T12:44:53;17.03;;;10.90;;
38264;SDS011;24062;47.480;8.768;2023-02-15T12:47:25;21.10;;;10.67;;
38264;SDS011;24062;47.480;8.768;2023-02-15T12:50:08;12.83;;;10.70;;
38264;SDS011;24062;47.480;8.768;2023-02-15T12:52:42;11.90;;;10.30;;
38264;SDS011;24062;47.480;8.768;2023-02-15T12:55:10;14.90;;;11.07;;
38264;SDS011;24062;47.480;8.768;2023-02-15T12:57:45;15.37;;;11.60;;
38264;SDS011;24062;47.480;8.768;2023-02-15T13:00:25;17.93;;;12.07;;
38264;SDS011;24062;47.480;8.768;2023-02-15T13:02:56;19.03;;;11.50;;
38264;SDS011;24062;47.480;8.768;2023-02-15T13:05:28;11.83;;;10.33;;
38264;SDS011;24062;47.480;8.768;2023-02-15T13:08:02;14.87;;;12.00;;
38264;SDS011;24062;47.480;8.768;2023-02-15T13:10:39;11.93;;;9.90;;
38264;SDS011;24062;47.480;8.768;2023-02-15T13:13:11;14.47;;;11.03;;
38264;SDS011;24062;47.480;8.768;2023-02-15T13:15:47;11.90;;;10.47;;
38264;SDS011;24062;47.480;8.768;2023-02-15T13:18:19;11.90;;;10.30;;
38264;SDS011;24062;47.480;8.768;2023-02-15T13:20:56;17.90;;;10.60;;
38264;SDS011;24062;47.480;8.768;2023-02-15T13:23:27;24.77;;;11.27;;
38264;SDS011;24062;47.480;8.768;2023-02-15T13:25:55;12.30;;;10.93;;
38264;SDS011;24062;47.480;8.768;2023-02-15T13:28:25;13.87;;;10.70;;
38264;SDS011;24062;47.480;8.768;2023-02-15T13:31:08;13.70;;;11.07;;
38264;SDS011;24062;47.480;8.768;2023-02-15T13:33:41;15.03;;;10.10;;
38264;SDS011;24062;47.480;8.768;2023-02-15T13:36:13;16.33;;;11.60;;
38264;SDS011;24062;47.480;8.768;2023-02-15T13:38:49;12.17;;;10.87;;
38264;SDS011;24062;47.480;8.768;2023-02-15T13:41:25;12.60;;;11.30;;
38264;SDS011;24062;47.480;8.768;2023-02-15T13:44:00;20.10;;;12.10;;
38264;SDS011;24062;47.480;8.768;2023-02-15T13:49:36;13.93;;;11.17;;
38264;SDS011;24062;47.480;8.768;2023-02-15T13:52:16;12.40;;;11.10;;
38264;SDS011;24062;47.480;8.768;2023-02-15T14:00:52;12.17;;;10.87;;
38264;SDS011;24062;47.480;8.768;2023-02-15T14:03:38;14.10;;;11.93;;
38264;SDS011;24062;47.480;8.768;2023-02-15T14:09:30;12.83;;;10.90;;
38264;SDS011;24062;47.480;8.768;2023-02-15T14:12:13;12.43;;;11.00;;
38264;SDS011;24062;47.480;8.768;2023-02-15T14:15:03;13.53;;;11.83;;
38264;SDS011;24062;47.480;8.768;2023-02-15T14:17:43;14.97;;;13.17;;
38264;SDS011;24062;47.480;8.768;2023-02-15T14:20:18;14.83;;;11.87;;
38264;SDS011;24062;47.480;8.768;2023-02-15T14:22:52;21.10;;;12.50;;
38264;SDS011;24062;47.480;8.768;2023-02-15T14:25:30;23.40;;;11.57;;
38264;SDS011;24062;47.480;8.768;2023-02-15T14:28:05;15.80;;;11.60;;
38264;SDS011;24062;47.480;8.768;2023-02-15T14:30:38;24.97;;;11.27;;
38264;SDS011;24062;47.480;8.768;2023-02-15T14:33:08;16.17;;;10.63;;
38264;SDS011;24062;47.480;8.768;2023-02-15T14:35:45;13.00;;;10.80;;
38264;SDS011;24062;47.480;8.768;2023-02-15T14:38:13;16.90;;;12.73;;
38264;SDS011;24062;47.480;8.768;2023-02-15T14:40:50;13.00;;;11.33;;
38264;SDS011;24062;47.480;8.768;2023-02-15T14:43:31;14.80;;;12.10;;
38264;SDS011;24062;47.480;8.768;2023-02-15T14:46:08;12.77;;;11.50;;
38264;SDS011;24062;47.480;8.768;2023-02-15T14:48:44;16.87;;;12.60;;
38264;SDS011;24062;47.480;8.768;2023-02-15T14:57:23;13.47;;;12.07;;
38264;SDS011;24062;47.480;8.768;2023-02-15T15:00:01;14.20;;;11.93;;
38264;SDS011;24062;47.480;8.768;2023-02-15T15:02:47;14.93;;;12.18;;
38264;SDS011;24062;47.480;8.768;2023-02-15T15:05:17;13.88;;;12.48;;
38264;SDS011;24062;47.480;8.768;2023-02-15T15:07:47;17.08;;;11.82;;
38264;SDS011;24062;47.480;8.768;2023-02-15T15:10:34;12.80;;;11.45;;
38264;SDS011;24062;47.480;8.768;2023-02-15T15:18:53;13.52;;;12.13;;
38264;SDS011;24062;47.480;8.768;2023-02-15T15:46:09;13.93;;;12.47;;
38264;SDS011;24062;47.480;8.768;2023-02-15T15:48:57;15.43;;;11.73;;
38264;SDS011;24062;47.480;8.768;2023-02-15T15:51:29;14.00;;;12.60;;
38264;SDS011;24062;47.480;8.768;2023-02-15T15:53:58;16.80;;;13.50;;
38264;SDS011;24062;47.480;8.768;2023-02-15T15:56:29;14.57;;;12.60;;
38264;SDS011;24062;47.480;8.768;2023-02-15T15:59:00;15.03;;;13.20;;
38264;SDS011;24062;47.480;8.768;2023-02-15T16:01:29;16.73;;;12.50;;
38264;SDS011;24062;47.480;8.768;2023-02-15T16:04:00;15.10;;;12.43;;
38264;SDS011;24062;47.480;8.768;2023-02-15T16:06:32;21.13;;;12.60;;